Time;durP1;ratioP1;P1;durP2;ratioP2;P2;SDS_P1;SDS_P2;PMS_P1;PMS_P2;Temp;Humidity;BMP_temperature;BMP_pressure;BME280_temperature;BME280_humidity;BME280_pressure;Samples;Min_cycle;Max_cycle;Signal;HPM_P1;HPM_P2
2021/11/30 00:01:29;;;;;;;31.08;20.92;;;;;;;2.84;91.09;99878.91;5046385;28;20115;-76
2021/11/30 00:03:54;;;;;;;28.88;20.38;;;;;;;2.80;90.00;99884.06;5049625;28;20115;-76
2021/11/30 00:06:20;;;;;;;31.33;20.45;;;;;;;2.85;90.31;99891.09;5049917;28;20415;-77
2021/11/30 00:08:48;;;;;;;29.92;21.02;;;;;;;2.85;90.41;99900.63;5050395;28;20043;-77
2021/11/30 00:11:13;;;;;;;27.17;19.25;;;;;;;2.85;90.30;99885.00;5050385;28;20029;-77
2021/11/30 00:13:40;;;;;;;28.13;19.92;;;;;;;2.83;90.49;99882.41;5049615;28;20037;-77
2021/11/30 00:16:06;;;;;;;26.27;18.52;;;;;;;2.87;89.70;99888.50;5050072;28;20107;-76
2021/11/30 00:18:33;;;;;;;27.95;19.52;;;;;;;2.85;89.98;99887.59;5048972;28;20075;-76
2021/11/30 00:21:01;;;;;;;27.30;18.85;;;;;;;2.86;89.96;99881.56;5050282;28;20103;-77
2021/11/30 00:23:27;;;;;;;29.17;20.13;;;;;;;2.89;90.26;99892.03;5049687;28;20099;-76
2021/11/30 00:25:52;;;;;;;28.48;18.67;;;;;;;2.86;89.86;99891.97;5050088;28;20492;-76
2021/11/30 00:28:17;;;;;;;31.05;19.45;;;;;;;2.91;90.12;99892.94;5047497;28;20041;-77
2021/11/30 00:30:43;;;;;;;27.95;20.15;;;;;;;2.96;89.78;99899.09;5107941;22;20055;-79
2021/11/30 00:33:09;;;;;;;27.52;19.35;;;;;;;2.93;90.44;99895.53;5042084;28;20035;-79
2021/11/30 00:35:35;;;;;;;28.30;19.90;;;;;;;3.03;90.27;99890.47;5045827;28;20037;-80
2021/11/30 00:38:02;;;;;;;28.40;18.65;;;;;;;3.05;90.19;99891.38;5050540;28;20049;-80
2021/11/30 00:40:28;;;;;;;25.25;17.90;;;;;;;3.03;90.12;99897.44;5040027;28;20488;-80
2021/11/30 00:42:55;;;;;;;25.30;17.02;;;;;;;3.00;89.37;99900.88;5042821;28;20129;-80
2021/11/30 00:45:21;;;;;;;22.73;15.90;;;;;;;3.00;89.57;99900.88;5048124;28;20108;-79
2021/11/30 00:47:56;;;;;;;23.92;16.17;;;;;;;3.02;89.16;99907.00;5044237;28;20562;-79
2021/11/30 00:50:26;;;;;;;21.85;14.93;;;;;;;3.02;88.01;99895.69;5038940;28;20053;-80
2021/11/30 00:52:54;;;;;;;22.85;14.98;;;;;;;2.94;88.53;99892.09;5039646;28;20065;-80
2021/11/30 00:55:21;;;;;;;20.40;14.15;;;;;;;2.91;87.52;99897.25;5042890;28;20060;-79
2021/11/30 00:57:46;;;;;;;19.65;13.65;;;;;;;2.85;87.35;99890.22;5038989;28;20041;-79
2021/11/30 01:00:15;;;;;;;17.92;12.57;;;;;;;2.87;87.76;99888.50;5042504;28;20044;-79
2021/11/30 01:02:41;;;;;;;21.50;13.77;;;;;;;2.79;87.13;99890.13;5037473;28;20038;-79
2021/11/30 01:05:09;;;;;;;18.40;12.45;;;;;;;2.87;86.54;99895.47;5043300;28;20515;-80
2021/11/30 01:07:35;;;;;;;19.17;13.82;;;;;;;2.77;86.76;99887.50;5040063;28;20040;-79
2021/11/30 01:10:13;;;;;;;17.92;12.88;;;;;;;2.75;86.49;99889.22;5022116;28;20041;-80
2021/11/30 01:12:39;;;;;;;18.20;12.20;;;;;;;2.61;86.50;99895.94;5039408;28;20036;-80
2021/11/30 01:15:10;;;;;;;17.55;12.20;;;;;;;2.54;86.83;99887.16;5043063;28;20123;-80
2021/11/30 01:17:35;;;;;;;20.45;12.88;;;;;;;2.45;87.37;99883.53;5040516;28;20033;-81
2021/11/30 01:20:01;;;;;;;16.02;11.32;;;;;;;2.48;87.05;99886.16;5045057;28;20584;-80
2021/11/30 01:22:27;;;;;;;19.70;13.07;;;;;;;2.46;87.21;99880.94;5043300;28;20041;-80
2021/11/30 01:24:52;;;;;;;16.17;11.20;;;;;;;2.38;87.26;99882.53;5046735;28;20036;-79
2021/11/30 01:27:18;;;;;;;18.30;12.60;;;;;;;2.22;87.35;99890.94;5043709;28;20092;-82
2021/11/30 01:29:43;;;;;;;19.45;13.07;;;;;;;2.13;87.26;99878.66;5046411;28;20033;-80
2021/11/30 01:32:08;;;;;;;17.60;12.57;;;;;;;2.05;87.00;99888.94;5043673;28;20041;-80
2021/11/30 01:34:34;;;;;;;16.45;11.57;;;;;;;1.95;87.38;99877.47;5044424;28;20108;-80
2021/11/30 01:37:00;;;;;;;20.10;13.68;;;;;;;1.85;87.80;99880.75;5042220;28;20036;-79
2021/11/30 01:39:26;;;;;;;17.75;12.07;;;;;;;1.76;88.20;99880.59;5047020;28;20035;-79
2021/11/30 01:41:51;;;;;;;18.13;12.68;;;;;;;1.71;88.53;99892.63;5046907;28;20033;-80
2021/11/30 01:44:53;;;;;;;17.55;11.90;;;;;;;1.65;88.48;99882.09;5051417;28;20033;-80
2021/11/30 01:47:59;;;;;;;19.40;13.40;;;;;;;1.60;88.70;99874.22;5043438;28;20408;-80
2021/11/30 01:49:55;;;;;;;20.20;13.02;;;;;;;1.56;88.80;99876.72;5040442;28;20053;-81
2021/11/30 01:52:21;;;;;;;18.88;12.85;;;;;;;1.52;89.06;99881.00;5045828;28;20037;-81
2021/11/30 01:54:47;;;;;;;18.33;12.98;;;;;;;1.56;89.17;99881.94;5053621;28;20040;-81
2021/11/30 01:57:15;;;;;;;19.73;13.63;;;;;;;1.57;89.34;99871.53;5044059;28;20036;-79
2021/11/30 01:59:42;;;;;;;21.40;13.95;;;;;;;1.64;89.59;99870.81;5040744;28;20103;-80
2021/11/30 02:02:08;;;;;;;25.40;15.90;;;;;;;1.64;88.76;99865.63;5049665;28;20041;-80
2021/11/30 02:04:35;;;;;;;23.92;15.13;;;;;;;1.70;89.21;99860.53;5048715;28;20030;-80
2021/11/30 02:07:00;;;;;;;21.60;14.23;;;;;;;1.78;88.48;99857.19;5045443;28;20393;-80
2021/11/30 02:09:27;;;;;;;18.75;12.95;;;;;;;1.84;88.30;99857.31;5044183;28;20030;-80
2021/11/30 02:11:53;;;;;;;19.85;13.20;;;;;;;1.79;88.08;99849.44;5045895;28;20120;-80
2021/11/30 02:14:18;;;;;;;22.45;12.73;;;;;;;1.75;87.84;99848.47;5046125;28;20116;-80
2021/11/30 02:16:45;;;;;;;20.92;13.63;;;;;;;1.73;88.36;99845.00;5046045;28;20044;-80
2021/11/30 02:19:11;;;;;;;18.75;13.05;;;;;;;1.75;87.79;99842.41;5042687;28;20037;-81
2021/11/30 02:21:39;;;;;;;19.38;12.68;;;;;;;1.76;87.75;99846.78;5049336;28;20044;-80
2021/11/30 02:24:05;;;;;;;20.73;13.55;;;;;;;1.66;87.26;99843.13;5041344;28;20424;-79
2021/11/30 02:26:34;;;;;;;19.83;12.60;;;;;;;1.54;87.84;99841.16;5078441;28;20040;-80
2021/11/30 02:28:59;;;;;;;20.70;13.40;;;;;;;1.47;88.13;99836.69;5041259;28;20057;-80
2021/11/30 02:31:30;;;;;;;20.67;13.23;;;;;;;1.38;88.20;99835.63;5024061;28;20488;-79
2021/11/30 02:33:56;;;;;;;20.48;13.38;;;;;;;1.34;88.47;99823.41;5045327;28;20030;-80
2021/11/30 02:36:30;;;;;;;19.98;12.98;;;;;;;1.25;88.57;99814.59;5045744;28;20064;-80
2021/11/30 02:38:58;;;;;;;19.42;12.77;;;;;;;1.22;88.56;99822.31;5042606;28;20091;-80
2021/11/30 02:41:24;;;;;;;18.98;12.40;;;;;;;1.14;88.44;99816.09;5045568;28;20124;-80
2021/11/30 02:43:50;;;;;;;19.58;12.07;;;;;;;1.11;88.22;99810.84;5037005;28;20133;-81
2021/11/30 02:46:30;;;;;;;17.10;12.40;;;;;;;1.08;87.93;99816.84;5040848;28;20040;-80
2021/11/30 02:48:55;;;;;;;19.25;12.30;;;;;;;1.06;87.75;99815.06;5043194;28;20101;-80
2021/11/30 02:51:21;;;;;;;17.55;11.73;;;;;;;1.01;88.07;99801.97;5044713;28;20072;-79
2021/11/30 02:53:47;;;;;;;18.13;12.20;;;;;;;0.99;88.16;99798.47;5047914;28;20254;-80
2021/11/30 02:56:12;;;;;;;16.27;11.57;;;;;;;0.99;88.03;99801.06;5037433;28;20044;-80
2021/11/30 02:58:37;;;;;;;19.42;11.70;;;;;;;0.94;87.72;99796.63;5040571;28;20036;-80
2021/11/30 03:01:05;;;;;;;15.63;10.73;;;;;;;0.95;88.04;99788.00;5040019;28;20084;-79
2021/11/30 03:03:31;;;;;;;17.77;11.57;;;;;;;0.92;87.79;99788.81;5044894;28;20041;-80
2021/11/30 03:05:57;;;;;;;16.70;10.63;;;;;;;0.92;87.93;99787.91;5042185;28;20074;-79
2021/11/30 03:08:22;;;;;;;18.73;10.90;;;;;;;0.90;87.52;99794.81;5045365;28;20507;-80
2021/11/30 03:10:47;;;;;;;16.85;11.15;;;;;;;0.91;87.80;99784.44;5041849;28;20029;-80
2021/11/30 03:13:13;;;;;;;20.63;11.60;;;;;;;0.90;87.88;99774.91;5044046;28;20037;-80
2021/11/30 03:15:38;;;;;;;17.92;10.82;;;;;;;0.91;87.70;99771.44;5043828;28;20041;-80
2021/11/30 03:18:04;;;;;;;16.40;10.77;;;;;;;0.96;87.26;99769.81;5043529;28;20040;-79
2021/11/30 03:20:29;;;;;;;16.08;10.82;;;;;;;1.05;87.21;99758.75;5043595;28;20072;-79
2021/11/30 03:22:55;;;;;;;17.38;10.65;;;;;;;1.22;86.98;99746.06;5041901;28;20128;-78
2021/11/30 03:25:20;;;;;;;15.73;9.87;;;;;;;1.30;86.43;99744.50;5044427;28;20025;-80
2021/11/30 03:27:47;;;;;;;17.35;10.18;;;;;;;1.37;85.87;99740.28;5041708;28;20439;-79
2021/11/30 03:30:13;;;;;;;13.70;9.43;;;;;;;1.49;85.76;99731.00;5044644;28;20045;-79
2021/11/30 03:35:23;;;;;;;15.40;9.27;;;;;;;1.63;84.84;99718.22;5042886;28;20033;-79
2021/11/30 03:37:49;;;;;;;15.07;9.65;;;;;;;1.69;83.90;99720.91;5043010;28;20043;-80
2021/11/30 03:40:14;;;;;;;15.82;8.68;;;;;;;1.70;84.35;99717.47;5042319;28;20116;-80
2021/11/30 03:42:39;;;;;;;16.45;9.00;;;;;;;1.69;83.37;99702.69;5043543;28;20131;-79
2021/11/30 03:45:06;;;;;;;17.70;10.00;;;;;;;1.67;82.56;99707.00;5044506;28;20416;-80
2021/11/30 03:47:32;;;;;;;16.02;9.50;;;;;;;1.62;82.33;99700.84;5044238;28;20075;-80
2021/11/30 03:49:57;;;;;;;17.17;10.73;;;;;;;1.69;82.49;99697.50;5040910;28;20047;-79
2021/11/30 03:52:22;;;;;;;17.55;9.88;;;;;;;1.77;82.59;99700.22;5044759;28;20036;-80
2021/11/30 03:54:48;;;;;;;16.35;9.30;;;;;;;1.82;81.67;99687.28;5040098;28;20033;-79
2021/11/30 03:57:13;;;;;;;15.70;9.30;;;;;;;1.83;81.86;99679.50;5056166;28;20150;-79
2021/11/30 03:59:38;;;;;;;15.15;8.98;;;;;;;1.81;81.26;99680.31;5037364;28;20048;-78
2021/11/30 04:02:04;;;;;;;17.30;9.07;;;;;;;1.75;81.09;99674.16;5038997;28;20442;-80
2021/11/30 04:04:31;;;;;;;16.23;8.63;;;;;;;1.84;81.48;99664.78;5040493;28;20460;-79
2021/11/30 04:06:57;;;;;;;14.35;8.95;;;;;;;1.88;80.10;99661.34;5042983;28;20049;-79
2021/11/30 04:09:24;;;;;;;13.77;8.50;;;;;;;1.90;80.26;99650.13;5044253;28;20069;-80
2021/11/30 04:11:50;;;;;;;14.95;9.05;;;;;;;1.89;79.73;99647.50;5045698;28;20037;-78
2021/11/30 04:14:16;;;;;;;12.93;7.95;;;;;;;1.96;79.83;99651.94;5034756;28;20108;-80
2021/11/30 04:16:42;;;;;;;13.48;7.20;;;;;;;1.96;79.15;99655.44;5038583;28;20041;-79
2021/11/30 04:19:08;;;;;;;12.52;6.32;;;;;;;1.98;78.92;99652.84;5038800;28;20052;-80
2021/11/30 04:21:33;;;;;;;10.02;6.53;;;;;;;1.99;78.20;99649.38;5039453;28;20053;-80
2021/11/30 04:23:59;;;;;;;10.10;6.57;;;;;;;2.00;78.34;99643.31;5045794;28;20491;-79
2021/11/30 04:26:24;;;;;;;9.30;6.28;;;;;;;2.01;78.33;99628.56;5042704;28;20029;-80
2021/11/30 04:28:50;;;;;;;8.52;5.78;;;;;;;2.05;78.10;99631.25;5040451;28;20033;-81
2021/11/30 04:31:16;;;;;;;9.75;5.65;;;;;;;2.08;77.93;99625.22;5039168;28;20087;-81
2021/11/30 04:33:41;;;;;;;8.18;5.50;;;;;;;2.16;76.91;99611.44;5040222;28;20527;-80
2021/11/30 04:36:07;;;;;;;9.23;5.45;;;;;;;2.22;76.82;99594.16;5037637;28;20060;-80
2021/11/30 04:38:34;;;;;;;8.88;5.88;;;;;;;2.31;77.13;99599.50;5035402;28;20029;-80
2021/11/30 04:41:00;;;;;;;8.57;5.85;;;;;;;2.35;76.30;99596.03;5045304;28;20042;-81
2021/11/30 04:43:34;;;;;;;8.85;5.28;;;;;;;2.42;76.13;99603.09;5044234;28;20148;-81
2021/11/30 04:46:02;;;;;;;8.32;5.45;;;;;;;2.41;75.15;99584.00;5042595;28;20040;-80
2021/11/30 04:48:27;;;;;;;8.57;5.07;;;;;;;2.44;75.77;99580.53;5042744;28;20052;-80
2021/11/30 04:50:55;;;;;;;10.35;5.65;;;;;;;2.52;75.64;99568.47;5045252;28;20045;-79
2021/11/30 04:53:21;;;;;;;7.00;4.72;;;;;;;2.56;75.50;99554.59;5043107;28;20091;-79
2021/11/30 04:55:50;;;;;;;7.85;4.93;;;;;;;2.53;74.94;99556.31;5046679;28;20627;-79
2021/11/30 04:58:16;;;;;;;8.20;5.32;;;;;;;2.64;74.61;99546.88;5049072;28;20032;-79
2021/11/30 05:00:41;;;;;;;10.02;6.20;;;;;;;2.62;75.76;99559.91;5043560;28;20478;-78
2021/11/30 05:03:09;;;;;;;8.23;5.55;;;;;;;2.48;77.15;99550.19;5041160;28;20029;-78
2021/11/30 05:05:34;;;;;;;7.78;5.40;;;;;;;2.42;78.04;99541.44;5040332;28;20029;-78
2021/11/30 05:08:00;;;;;;;9.40;6.43;;;;;;;2.40;78.68;99532.75;5045890;28;20442;-78
2021/11/30 05:10:25;;;;;;;9.43;6.38;;;;;;;2.42;78.00;99525.81;5042538;28;20047;-78
2021/11/30 05:12:51;;;;;;;8.68;5.93;;;;;;;2.43;77.47;99542.31;5041827;28;20041;-78
2021/11/30 05:15:16;;;;;;;9.52;5.82;;;;;;;2.47;78.50;99544.09;5041599;28;20032;-78
2021/11/30 05:17:42;;;;;;;9.60;6.78;;;;;;;2.37;79.45;99540.53;5041603;28;20487;-77
2021/11/30 05:20:09;;;;;;;11.02;7.00;;;;;;;2.26;80.84;99531.72;5042340;28;20040;-78
2021/11/30 05:22:34;;;;;;;10.27;7.00;;;;;;;2.28;80.87;99519.59;5039880;28;20033;-77
2021/11/30 05:25:00;;;;;;;10.23;6.53;;;;;;;2.17;82.03;99522.09;5040045;28;20041;-77
2021/11/30 05:27:27;;;;;;;13.00;8.77;;;;;;;2.19;82.02;99517.75;5050484;28;20036;-78
2021/11/30 05:29:53;;;;;;;11.25;7.45;;;;;;;2.15;82.83;99509.91;5049651;28;20044;-78
2021/11/30 05:32:19;;;;;;;11.48;7.55;;;;;;;2.13;82.70;99525.50;5039820;28;20194;-77
2021/11/30 05:34:45;;;;;;;11.50;7.50;;;;;;;2.16;82.62;99507.31;5042753;28;20715;-78
2021/11/30 05:37:10;;;;;;;12.55;8.23;;;;;;;2.22;82.75;99505.63;5046085;28;20147;-78
2021/11/30 05:39:35;;;;;;;11.05;7.65;;;;;;;2.26;82.15;99502.22;5046854;28;20044;-77
2021/11/30 05:42:01;;;;;;;11.82;8.07;;;;;;;2.22;82.55;99495.22;5041910;28;20243;-76
2021/11/30 05:44:26;;;;;;;12.73;8.73;;;;;;;2.24;83.22;99488.31;5049082;28;20580;-77
2021/11/30 05:46:52;;;;;;;13.30;8.25;;;;;;;2.28;83.28;99505.69;5043280;28;20522;-77
2021/11/30 05:49:18;;;;;;;13.68;8.32;;;;;;;2.21;83.61;99493.50;5044199;28;20033;-78
2021/11/30 05:51:43;;;;;;;15.25;9.25;;;;;;;2.16;84.37;99489.09;5048952;28;20454;-78
2021/11/30 05:54:09;;;;;;;14.50;9.27;;;;;;;2.17;85.20;99479.53;5044771;28;20060;-77
2021/11/30 05:56:35;;;;;;;14.90;9.27;;;;;;;2.16;85.24;99475.22;5048797;28;20107;-78
2021/11/30 05:59:00;;;;;;;13.80;9.40;;;;;;;2.12;85.98;99469.09;5040826;28;20035;-78
2021/11/30 06:01:31;;;;;;;13.55;9.48;;;;;;;2.16;85.88;99465.66;5043270;28;20052;-78
2021/11/30 06:03:58;;;;;;;13.45;9.07;;;;;;;2.16;86.17;99460.47;5041901;28;20106;-78
2021/11/30 06:06:25;;;;;;;13.10;8.57;;;;;;;2.24;86.29;99451.88;5043500;28;20049;-79
2021/11/30 06:08:50;;;;;;;14.82;10.07;;;;;;;2.20;85.90;99445.72;5047514;28;20043;-78
2021/11/30 06:11:17;;;;;;;17.45;9.68;;;;;;;2.22;86.23;99443.16;5038616;28;20022;-79
2021/11/30 06:13:42;;;;;;;15.90;10.25;;;;;;;2.27;86.09;99436.25;5042526;28;20033;-78
2021/11/30 06:16:08;;;;;;;19.45;11.18;;;;;;;2.30;86.54;99425.88;5039146;28;20036;-78
2021/11/30 06:18:33;;;;;;;20.35;10.60;;;;;;;2.30;86.25;99415.47;5036446;28;20036;-78
2021/11/30 06:20:58;;;;;;;26.90;14.68;;;;;;;2.34;86.44;99418.13;5039229;28;20542;-78
2021/11/30 06:23:25;;;;;;;22.05;12.52;;;;;;;2.40;86.57;99419.91;5039406;28;20522;-79
2021/11/30 06:25:50;;;;;;;18.65;11.00;;;;;;;2.37;86.07;99396.44;5040165;28;20037;-79
2021/11/30 06:28:16;;;;;;;17.20;10.18;;;;;;;2.34;85.85;99386.00;5041894;28;20057;-77
2021/11/30 06:30:41;;;;;;;18.35;11.48;;;;;;;2.33;87.19;99379.94;5050840;28;20037;-78
2021/11/30 06:33:06;;;;;;;24.17;14.48;;;;;;;2.29;87.51;99387.69;5037051;28;20036;-78
2021/11/30 06:35:32;;;;;;;17.83;11.07;;;;;;;2.39;86.87;99376.50;5066525;23;20126;-76
2021/11/30 06:37:57;;;;;;;18.27;11.98;;;;;;;2.35;86.83;99366.91;5073197;28;20494;-76
2021/11/30 06:40:23;;;;;;;16.73;9.98;;;;;;;2.34;87.38;99355.63;5071220;28;20064;-76
2021/11/30 06:42:48;;;;;;;17.50;10.15;;;;;;;2.37;86.84;99336.56;5071891;28;20064;-76
2021/11/30 06:45:14;;;;;;;26.67;14.70;;;;;;;2.56;90.11;99341.03;5068863;28;20024;-76
2021/11/30 06:47:42;;;;;;;31.55;17.70;;;;;;;2.85;89.35;99329.91;5049729;28;20040;-76
2021/11/30 06:50:09;;;;;;;14.80;9.48;;;;;;;2.88;87.30;99319.50;5039444;28;20103;-75
2021/11/30 06:52:37;;;;;;;15.30;9.35;;;;;;;2.76;86.49;99322.94;5040440;28;20440;-76
2021/11/30 06:55:03;;;;;;;13.40;8.88;;;;;;;2.64;86.59;99328.91;5047564;28;20065;-76
2021/11/30 06:57:28;;;;;;;14.23;8.63;;;;;;;2.57;86.91;99314.13;5039317;28;20060;-76
2021/11/30 06:59:59;;;;;;;13.80;8.98;;;;;;;2.54;87.37;99306.31;5039831;28;20125;-76
2021/11/30 07:02:24;;;;;;;15.82;9.30;;;;;;;2.50;87.40;99306.25;5046805;28;20053;-76
2021/11/30 07:04:52;;;;;;;12.40;8.15;;;;;;;2.58;87.10;99300.22;5038929;28;20120;-76
2021/11/30 07:07:31;;;;;;;13.13;8.82;;;;;;;2.47;87.36;99294.09;5045851;28;20048;-76
2021/11/30 07:10:23;;;;;;;16.10;9.60;;;;;;;2.56;87.71;99290.66;5039582;28;20522;-76
2021/11/30 07:13:25;;;;;;;17.70;9.52;;;;;;;2.66;87.97;99273.38;5038863;28;20033;-76
2021/11/30 07:15:41;;;;;;;17.40;9.03;;;;;;;2.72;87.81;99268.19;5043983;28;20095;-76
2021/11/30 07:18:07;;;;;;;10.57;6.43;;;;;;;2.73;87.07;99268.19;5047117;28;20037;-76
2021/11/30 07:20:32;;;;;;;11.55;7.28;;;;;;;2.63;87.61;99267.28;5048537;28;20121;-76
2021/11/30 07:22:58;;;;;;;8.60;5.97;;;;;;;2.60;87.55;99256.84;5047812;28;20064;-77
2021/11/30 07:25:26;;;;;;;10.77;6.47;;;;;;;2.61;87.81;99248.16;5042458;28;20052;-77
2021/11/30 07:27:53;;;;;;;10.18;6.25;;;;;;;2.66;87.54;99242.09;5043734;28;20041;-76
2021/11/30 07:30:19;;;;;;;9.07;5.88;;;;;;;2.53;87.68;99248.97;5041786;28;20041;-77
2021/11/30 07:32:45;;;;;;;8.15;5.68;;;;;;;2.54;88.29;99242.91;5039227;28;20492;-77
2021/11/30 07:35:10;;;;;;;11.35;5.43;;;;;;;2.54;88.42;99230.78;5037094;28;20036;-76
2021/11/30 07:37:36;;;;;;;11.18;6.53;;;;;;;2.55;88.25;99227.28;5039636;28;20107;-76
2021/11/30 07:40:03;;;;;;;8.63;4.95;;;;;;;2.57;87.91;99222.97;5040006;28;20044;-77
2021/11/30 07:42:31;;;;;;;8.70;5.03;;;;;;;2.49;89.08;99211.66;5039344;28;20423;-76
2021/11/30 07:44:57;;;;;;;8.82;5.45;;;;;;;2.53;88.90;99208.19;5040519;28;20043;-76
2021/11/30 07:47:23;;;;;;;8.32;5.22;;;;;;;2.50;89.07;99192.53;5047353;28;20059;-76
2021/11/30 07:49:49;;;;;;;9.43;5.80;;;;;;;2.48;89.30;99196.00;5038831;28;20559;-76
2021/11/30 07:52:14;;;;;;;8.43;5.50;;;;;;;2.54;89.46;99186.50;5038668;28;20483;-76
2021/11/30 07:54:40;;;;;;;6.75;4.35;;;;;;;2.46;89.05;99188.16;5039381;28;20056;-77
2021/11/30 07:57:05;;;;;;;7.65;4.47;;;;;;;2.45;89.85;99181.22;5035011;28;20520;-77
2021/11/30 07:59:32;;;;;;;9.27;4.65;;;;;;;2.49;89.98;99162.16;5050817;28;20047;-76
2021/11/30 08:01:58;;;;;;;9.15;4.75;;;;;;;2.45;90.22;99160.41;5040438;28;20170;-76
2021/11/30 08:04:23;;;;;;;6.60;4.25;;;;;;;2.46;89.98;99156.91;5044029;28;20041;-76
2021/11/30 08:06:48;;;;;;;7.10;4.85;;;;;;;2.43;90.33;99151.69;5039623;28;20029;-77
2021/11/30 08:09:14;;;;;;;6.95;4.95;;;;;;;2.42;90.52;99149.97;5045288;28;20031;-76
2021/11/30 08:11:40;;;;;;;5.85;3.75;;;;;;;2.50;90.30;99143.06;5043008;28;20042;-76
2021/11/30 08:14:05;;;;;;;8.35;4.15;;;;;;;2.35;90.43;99132.56;5035193;28;20038;-76
2021/11/30 08:16:31;;;;;;;5.55;3.47;;;;;;;2.50;90.17;99127.44;5037610;28;20041;-76
2021/11/30 08:18:56;;;;;;;5.47;3.90;;;;;;;2.54;90.20;99124.00;5040833;28;20033;-77
2021/11/30 08:21:21;;;;;;;6.95;3.90;;;;;;;2.60;89.68;99125.75;5044899;28;20099;-76
2021/11/30 08:23:47;;;;;;;4.90;3.20;;;;;;;2.57;89.68;99110.97;5037504;28;20037;-76
2021/11/30 08:26:12;;;;;;;6.05;3.75;;;;;;;2.55;90.05;99115.28;5039272;28;20413;-76
2021/11/30 08:28:39;;;;;;;6.53;3.78;;;;;;;2.55;89.90;99110.09;5046683;28;20028;-76
2021/11/30 08:31:05;;;;;;;11.02;5.95;;;;;;;2.66;91.02;99107.50;5043533;28;20057;-76
2021/11/30 08:33:30;;;;;;;6.35;3.58;;;;;;;2.80;89.46;99102.34;5045303;28;20040;-76
2021/11/30 08:35:56;;;;;;;9.48;4.85;;;;;;;2.93;90.55;99080.63;5042503;28;20163;-77
2021/11/30 08:38:23;;;;;;;8.40;3.97;;;;;;;3.07;90.33;99097.19;5039055;28;20051;-76
2021/11/30 08:40:48;;;;;;;5.78;2.65;;;;;;;2.85;89.33;99066.72;5042531;28;20492;-76
2021/11/30 08:43:15;;;;;;;3.58;2.22;;;;;;;2.90;89.06;99077.16;5042352;28;20041;-76
2021/11/30 08:45:40;;;;;;;4.45;2.58;;;;;;;2.70;89.60;99059.78;5039473;28;20041;-76
2021/11/30 08:48:06;;;;;;;6.30;2.88;;;;;;;2.62;90.09;99064.97;5042502;28;20036;-76
2021/11/30 08:50:31;;;;;;;4.50;2.00;;;;;;;2.60;89.72;99058.88;5042011;28;20033;-76
2021/11/30 08:52:56;;;;;;;3.53;1.90;;;;;;;2.64;89.56;99042.38;5042157;28;20029;-76
2021/11/30 08:55:22;;;;;;;3.85;1.95;;;;;;;2.62;89.29;99046.75;5041035;28;20024;-76
2021/11/30 08:57:48;;;;;;;3.92;1.67;;;;;;;2.60;89.50;99058.88;5042039;28;20044;-76
2021/11/30 09:00:18;;;;;;;2.88;1.50;;;;;;;2.63;89.53;99035.44;5048440;28;20033;-76
2021/11/30 09:02:43;;;;;;;3.92;1.77;;;;;;;2.66;89.26;99033.72;5038369;28;20029;-76
2021/11/30 09:05:10;;;;;;;2.78;1.70;;;;;;;2.57;89.78;99035.44;5041975;28;20037;-76
2021/11/30 09:07:35;;;;;;;4.35;1.50;;;;;;;2.50;90.43;99032.81;5038072;28;20044;-76
2021/11/30 09:10:02;;;;;;;7.45;2.80;;;;;;;2.51;91.34;99045.81;5042031;28;20049;-76
2021/11/30 09:12:27;;;;;;;4.20;2.25;;;;;;;2.53;91.28;99033.69;5038457;28;20037;-75
2021/11/30 09:14:53;;;;;;;3.88;1.38;;;;;;;2.50;90.82;99036.28;5042868;28;20226;-76
2021/11/30 09:17:20;;;;;;;2.22;1.20;;;;;;;2.52;91.10;99025.88;5052879;28;20488;-76
2021/11/30 09:19:45;;;;;;;2.83;1.40;;;;;;;2.53;91.45;99025.88;5043002;28;20044;-76
2021/11/30 09:22:12;;;;;;;2.28;1.05;;;;;;;2.54;90.67;99013.72;5039009;28;20462;-76
2021/11/30 09:24:37;;;;;;;2.75;1.30;;;;;;;2.53;90.39;99025.00;5048414;28;20061;-76
2021/11/30 09:27:03;;;;;;;11.70;3.40;;;;;;;2.54;91.72;99009.41;5038851;28;20056;-76
2021/11/30 09:29:29;;;;;;;9.02;2.85;;;;;;;2.79;91.11;99009.41;5043665;28;20122;-75
2021/11/30 09:31:54;;;;;;;6.47;1.65;;;;;;;2.78;90.37;98984.25;5041086;28;20040;-75
2021/11/30 09:34:20;;;;;;;6.07;1.65;;;;;;;2.77;89.56;98982.47;5042628;28;20197;-76
2021/11/30 09:36:47;;;;;;;2.25;1.60;;;;;;;2.73;88.93;98993.78;5048203;28;20047;-75
2021/11/30 09:39:12;;;;;;;1.70;0.70;;;;;;;2.75;88.76;98979.91;5040505;28;20535;-76
2021/11/30 09:41:38;;;;;;;2.03;0.90;;;;;;;2.77;88.93;98987.69;5040587;28;20111;-76
2021/11/30 09:44:04;;;;;;;3.70;0.82;;;;;;;2.74;88.57;98972.06;5039641;28;20037;-76
2021/11/30 09:46:31;;;;;;;2.80;1.15;;;;;;;2.80;89.08;98954.72;5043732;28;20085;-76
2021/11/30 09:48:57;;;;;;;1.83;0.70;;;;;;;2.90;88.49;98965.13;5041597;28;20450;-76
2021/11/30 09:51:22;;;;;;;1.65;0.70;;;;;;;2.91;87.72;98966.84;5039676;28;20519;-75
2021/11/30 09:53:48;;;;;;;3.22;0.75;;;;;;;2.95;88.00;98956.41;5039989;28;20040;-75
2021/11/30 09:56:14;;;;;;;2.00;0.70;;;;;;;3.04;87.34;98935.56;5037000;28;20048;-76
2021/11/30 09:58:40;;;;;;;1.38;0.70;;;;;;;2.96;87.79;98947.75;5038004;28;20038;-75
2021/11/30 10:01:10;;;;;;;5.65;1.70;;;;;;;3.03;87.75;98954.69;5043702;28;20037;-75
2021/11/30 10:03:35;;;;;;;3.10;1.35;;;;;;;3.13;88.41;98946.84;5040582;28;20400;-75
2021/11/30 10:06:01;;;;;;;1.75;0.60;;;;;;;3.11;86.85;98943.38;5039220;28;20052;-76
2021/11/30 10:08:30;;;;;;;0.98;0.35;;;;;;;3.20;87.08;98932.94;5037642;28;20052;-76
2021/11/30 10:10:56;;;;;;;2.05;0.60;;;;;;;3.22;86.96;98911.22;5041332;28;20036;-76
2021/11/30 10:13:22;;;;;;;1.42;0.70;;;;;;;3.29;86.97;98914.66;5042244;28;20572;-76
2021/11/30 10:15:51;;;;;;;1.13;0.45;;;;;;;3.33;86.09;98924.22;5041561;28;20033;-75
2021/11/30 10:18:23;;;;;;;4.15;1.17;;;;;;;3.38;85.84;98896.41;5038638;28;20069;-76
2021/11/30 10:20:54;;;;;;;1.02;0.50;;;;;;;3.46;85.26;98905.06;5046782;28;20075;-76
2021/11/30 10:23:22;;;;;;;1.05;0.45;;;;;;;3.53;85.51;98885.00;5040054;28;20133;-76
2021/11/30 10:25:49;;;;;;;1.40;0.40;;;;;;;3.61;83.96;98864.13;5045324;28;20029;-76
2021/11/30 10:28:23;;;;;;;2.13;0.60;;;;;;;3.73;84.26;98877.09;5047158;28;20499;-76
2021/11/30 10:30:51;;;;;;;3.55;1.20;;;;;;;3.89;84.50;98872.66;5047446;28;20047;-76
2021/11/30 10:33:20;;;;;;;1.52;0.50;;;;;;;3.97;83.31;98849.13;5046919;28;20029;-76
2021/11/30 10:35:51;;;;;;;1.48;0.45;;;;;;;4.05;83.68;98863.84;5045141;28;20044;-76
2021/11/30 10:38:17;;;;;;;1.27;0.50;;;;;;;4.03;82.06;98875.19;5042429;28;20400;-76
2021/11/30 10:40:44;;;;;;;0.85;0.32;;;;;;;4.07;81.82;98849.06;5042257;28;20035;-76
2021/11/30 10:43:10;;;;;;;1.73;0.30;;;;;;;4.06;82.33;98838.63;5037283;28;20048;-76
2021/11/30 10:45:43;;;;;;;1.45;0.22;;;;;;;4.14;81.15;98849.91;5045586;28;20084;-76
2021/11/30 10:48:14;;;;;;;0.82;0.28;;;;;;;4.22;81.14;98836.75;5038550;28;20510;-76
2021/11/30 10:50:47;;;;;;;1.40;0.30;;;;;;;4.26;80.95;98825.41;5045471;28;20045;-76
2021/11/30 10:53:24;;;;;;;;;;;;;;;4.25;81.28;98834.16;5037262;28;20042;-75
2021/11/30 10:55:53;;;;;;;1.73;0.30;;;;;;;4.30;80.86;98821.91;5039832;28;19925;-75
2021/11/30 10:58:19;;;;;;;0.60;0.20;;;;;;;4.31;80.87;98841.91;5043213;28;20033;-76
2021/11/30 11:00:45;;;;;;;2.85;0.77;;;;;;;4.30;81.05;98841.06;5045225;28;20037;-75
2021/11/30 11:03:17;;;;;;;0.50;0.30;;;;;;;4.38;81.19;98784.41;5040609;28;20037;-75
2021/11/30 11:05:46;;;;;;;0.23;0.17;;;;;;;4.38;81.56;98830.56;5042826;28;20037;-75
2021/11/30 11:08:16;;;;;;;0.68;0.20;;;;;;;4.40;81.84;98823.53;5045765;28;20638;-75
2021/11/30 11:10:48;;;;;;;0.28;0.20;;;;;;;4.44;82.60;98821.78;5037675;28;20045;-75
2021/11/30 11:13:30;;;;;;;0.52;0.28;;;;;;;4.41;83.30;98821.81;5037140;28;20057;-75
2021/11/30 11:15:58;;;;;;;1.17;0.40;;;;;;;4.38;83.95;98815.75;5037880;28;20034;-75
2021/11/30 11:18:35;;;;;;;0.85;0.20;;;;;;;4.35;84.97;98820.13;5040198;28;20699;-75
2021/11/30 11:21:36;;;;;;;1.40;0.30;;;;;;;4.23;86.42;98826.31;5040288;28;20037;-75
2021/11/30 11:24:13;;;;;;;2.10;0.82;;;;;;;4.09;87.66;98818.59;5027675;28;20136;-75
2021/11/30 11:26:56;;;;;;;1.42;0.52;;;;;;;4.08;88.60;98815.97;5039217;28;20049;-74
2021/11/30 11:29:24;;;;;;;2.03;0.30;;;;;;;3.99;88.44;98826.50;5036896;28;20091;-75
2021/11/30 11:31:55;;;;;;;1.42;0.47;;;;;;;3.97;88.33;98836.09;5035050;28;20036;-75
2021/11/30 11:34:26;;;;;;;1.50;0.35;;;;;;;4.07;88.33;98835.16;5045565;28;20467;-74
2021/11/30 11:36:53;;;;;;;1.23;0.45;;;;;;;4.05;88.88;98816.00;5039277;28;20043;-74